createdAt,value
2018-03-21T00:00:53.512Z,0.00
2018-03-21T00:01:53.518Z,0.00
2018-03-21T00:03:46.432Z,0.00
2018-03-21T00:04:46.431Z,0.00
2018-03-21T00:06:39.334Z,0.00
2018-03-21T00:07:39.326Z,0.00
2018-03-21T00:09:32.216Z,0.00
2018-03-21T00:10:32.230Z,0.00
2018-03-21T00:12:25.140Z,0.00
2018-03-21T00:13:25.130Z,0.00
2018-03-21T00:15:18.026Z,0.00
2018-03-21T00:16:18.034Z,0.00
2018-03-21T00:18:10.942Z,0.00
2018-03-21T00:19:10.933Z,0.00
2018-03-21T00:21:03.826Z,0.00
2018-03-21T00:22:03.832Z,0.00
2018-03-21T00:23:56.742Z,0.00
2018-03-21T00:24:56.732Z,0.00
2018-03-21T00:26:49.653Z,0.00
2018-03-21T00:27:49.637Z,0.00
2018-03-21T00:29:42.522Z,0.00
2018-03-21T00:30:42.533Z,0.00
2018-03-21T00:32:35.439Z,0.00
2018-03-21T00:33:35.434Z,0.00
2018-03-21T00:35:28.323Z,0.00
2018-03-21T00:36:28.333Z,0.00
2018-03-21T00:38:21.280Z,0.00
2018-03-21T00:39:21.274Z,0.00
2018-03-21T00:41:14.159Z,0.00
2018-03-21T00:42:14.175Z,0.00
2018-03-21T00:44:07.080Z,0.00
2018-03-21T00:45:07.071Z,0.00
2018-03-21T00:46:59.989Z,0.00
2018-03-21T00:47:59.972Z,0.00
2018-03-21T00:49:52.861Z,0.00
2018-03-21T00:50:52.879Z,0.00
2018-03-21T00:52:45.780Z,0.00
2018-03-21T00:53:45.772Z,0.00
2018-03-21T00:55:38.663Z,0.00
2018-03-21T00:56:38.675Z,0.00
2018-03-21T00:58:31.580Z,0.00
2018-03-21T00:59:31.573Z,0.00
2018-03-21T01:01:24.477Z,0.00
2018-03-21T01:02:24.482Z,0.00
2018-03-21T01:04:17.391Z,0.00
2018-03-21T01:05:17.385Z,0.00
2018-03-21T01:07:10.313Z,0.00
2018-03-21T01:08:10.289Z,0.00
2018-03-21T01:10:03.177Z,0.00
2018-03-21T01:11:03.185Z,0.00
2018-03-21T01:12:56.100Z,0.00
2018-03-21T01:13:56.090Z,0.00
2018-03-21T01:15:48.976Z,0.00
2018-03-21T01:16:48.988Z,0.00
2018-03-21T01:18:41.899Z,0.00
2018-03-21T01:19:41.891Z,0.00
2018-03-21T01:21:34.779Z,0.00
2018-03-21T01:22:34.789Z,0.00
2018-03-21T01:24:27.698Z,0.00
2018-03-21T01:25:27.693Z,0.00
2018-03-21T01:27:20.613Z,0.00
2018-03-21T01:28:20.589Z,0.00
2018-03-21T01:30:13.477Z,0.00
2018-03-21T01:31:13.486Z,0.00
2018-03-21T01:33:06.393Z,0.00
2018-03-21T01:34:06.384Z,0.00
2018-03-21T01:35:59.271Z,0.00
2018-03-21T01:36:59.281Z,0.00
2018-03-21T01:38:52.189Z,0.00
2018-03-21T01:39:52.183Z,0.00
2018-03-21T01:41:45.071Z,0.00
2018-03-21T01:42:45.080Z,0.00
2018-03-21T01:44:37.988Z,0.00
2018-03-21T01:45:37.980Z,0.00
2018-03-21T01:47:30.867Z,0.00
2018-03-21T01:48:30.876Z,0.00
2018-03-21T01:50:23.788Z,0.00
2018-03-21T01:51:23.781Z,0.00
2018-03-21T01:53:16.688Z,0.00
2018-03-21T01:54:16.681Z,0.00
2018-03-21T01:56:09.569Z,0.00
2018-03-21T01:57:09.580Z,0.00
2018-03-21T01:59:02.483Z,0.00
2018-03-21T02:00:02.476Z,0.00
2018-03-21T02:01:55.381Z,0.00
2018-03-21T02:02:55.385Z,0.00
2018-03-21T02:04:48.294Z,0.00
2018-03-21T02:05:48.285Z,0.00
2018-03-21T02:07:41.178Z,0.00
2018-03-21T02:08:41.187Z,0.00
2018-03-21T02:10:34.092Z,0.00
2018-03-21T02:11:34.084Z,0.00
2018-03-21T02:13:26.993Z,0.00
2018-03-21T02:14:26.982Z,0.00
2018-03-21T02:16:19.871Z,0.00
2018-03-21T02:17:19.885Z,0.00
2018-03-21T02:19:12.784Z,0.00
2018-03-21T02:20:12.774Z,0.00
2018-03-21T02:22:05.662Z,0.00
2018-03-21T02:23:05.675Z,0.00
2018-03-21T02:24:58.580Z,0.00
2018-03-21T02:25:58.571Z,0.00
2018-03-21T02:27:51.459Z,0.00
2018-03-21T02:28:51.470Z,0.00
2018-03-21T02:30:44.375Z,0.00
2018-03-21T02:31:44.372Z,0.00
2018-03-21T02:33:37.276Z,0.00
2018-03-21T02:34:37.270Z,0.00
2018-03-21T02:36:30.154Z,0.00
2018-03-21T02:37:30.164Z,0.00
2018-03-21T02:39:23.070Z,0.00
2018-03-21T02:40:23.063Z,0.00
2018-03-21T02:42:15.950Z,0.00
2018-03-21T02:43:15.963Z,0.00
2018-03-21T02:45:08.869Z,0.00
2018-03-21T02:46:08.859Z,0.00
2018-03-21T02:48:01.754Z,0.00
2018-03-21T02:49:01.757Z,0.00
2018-03-21T02:50:54.662Z,0.00
2018-03-21T02:51:54.653Z,0.00
2018-03-21T02:53:47.556Z,0.00
2018-03-21T02:54:47.549Z,0.00
2018-03-21T02:56:40.674Z,0.00
2018-03-21T02:57:40.453Z,0.00
2018-03-21T02:59:33.351Z,0.00
2018-03-21T03:00:33.344Z,0.00
2018-03-21T03:02:26.228Z,0.00
2018-03-21T03:03:26.249Z,0.00
2018-03-21T03:05:19.149Z,0.00
2018-03-21T03:06:19.145Z,0.00
2018-03-21T03:08:12.033Z,0.00
2018-03-21T03:09:12.034Z,0.00
2018-03-21T03:11:04.939Z,0.00
2018-03-21T03:12:04.927Z,0.00
2018-03-21T03:13:57.833Z,0.00
2018-03-21T03:14:57.828Z,0.00
2018-03-21T03:16:50.712Z,0.00
2018-03-21T03:17:50.724Z,0.00
2018-03-21T03:19:43.631Z,0.00
2018-03-21T03:20:43.624Z,0.00
2018-03-21T03:22:36.510Z,0.00
2018-03-21T03:23:36.519Z,0.00
2018-03-21T03:25:29.428Z,0.00
2018-03-21T03:26:29.420Z,0.00
2018-03-21T03:28:22.305Z,0.00
2018-03-21T03:29:22.316Z,0.00
2018-03-21T03:31:15.223Z,0.00
2018-03-21T03:32:15.213Z,0.00
2018-03-21T03:34:08.121Z,0.00
2018-03-21T03:35:08.109Z,0.00
2018-03-21T03:37:00.994Z,0.00
2018-03-21T03:38:01.004Z,0.00
2018-03-21T03:39:53.906Z,0.00
2018-03-21T03:40:53.897Z,0.00
2018-03-21T03:42:46.785Z,0.00
2018-03-21T03:43:46.794Z,0.00
2018-03-21T03:45:39.709Z,0.00
2018-03-21T03:46:39.699Z,0.00
2018-03-21T03:48:32.582Z,0.00
2018-03-21T03:49:32.592Z,0.00
2018-03-21T03:51:25.499Z,0.00
2018-03-21T03:52:25.491Z,0.00
2018-03-21T03:54:18.395Z,0.00
2018-03-21T03:55:18.386Z,0.00
2018-03-21T03:57:11.273Z,0.00
2018-03-21T03:58:11.280Z,0.00
2018-03-21T04:00:04.187Z,0.00
2018-03-21T04:01:04.182Z,0.00
2018-03-21T04:02:57.067Z,0.00
2018-03-21T04:03:57.077Z,0.00
2018-03-21T04:05:49.986Z,0.00
2018-03-21T04:06:49.980Z,0.00
2018-03-21T04:08:42.862Z,0.00
2018-03-21T04:09:42.874Z,0.00
2018-03-21T04:11:35.778Z,0.00
2018-03-21T04:12:35.783Z,0.00
2018-03-21T04:14:28.674Z,0.00
2018-03-21T04:15:28.664Z,0.00
2018-03-21T04:17:21.552Z,0.00
2018-03-21T04:18:21.561Z,0.00
2018-03-21T04:20:14.467Z,0.00
2018-03-21T04:21:14.457Z,0.00
2018-03-21T04:23:07.343Z,0.00
2018-03-21T04:24:07.354Z,0.00
2018-03-21T04:26:00.262Z,0.00
2018-03-21T04:27:00.258Z,0.00
2018-03-21T04:28:53.144Z,0.00
2018-03-21T04:29:53.154Z,0.00
2018-03-21T04:31:46.057Z,0.00
2018-03-21T04:32:46.050Z,0.00
2018-03-21T04:34:38.950Z,0.00
2018-03-21T04:35:38.941Z,0.00
2018-03-21T04:37:31.833Z,0.00
2018-03-21T04:38:31.841Z,0.00
2018-03-21T04:40:24.742Z,0.00
2018-03-21T04:41:24.733Z,0.00
2018-03-21T04:43:17.620Z,0.00
2018-03-21T04:44:17.631Z,0.00
2018-03-21T04:46:10.534Z,0.00
2018-03-21T04:47:10.527Z,0.00
2018-03-21T04:49:03.407Z,0.00
2018-03-21T04:50:03.422Z,0.00
2018-03-21T04:51:56.323Z,0.00
2018-03-21T04:52:56.319Z,0.00
2018-03-21T04:54:49.218Z,0.00
2018-03-21T04:55:49.209Z,0.00
2018-03-21T04:57:42.248Z,0.00
2018-03-21T04:58:42.259Z,4.00
2018-03-21T05:00:35.396Z,4.00
2018-03-21T05:01:35.386Z,4.00
2018-03-21T05:03:28.270Z,8.00
2018-03-21T05:04:28.281Z,8.00
2018-03-21T05:06:21.188Z,8.00
2018-03-21T05:07:21.175Z,16.00
2018-03-21T05:09:14.061Z,16.00
2018-03-21T05:10:14.075Z,20.00
2018-03-21T05:12:06.976Z,28.00
2018-03-21T05:13:06.965Z,36.00
2018-03-21T05:14:59.870Z,44.00
2018-03-21T05:15:59.861Z,52.00
2018-03-21T05:17:52.744Z,68.00
2018-03-21T05:18:52.754Z,80.00
2018-03-21T05:20:45.659Z,104.00
2018-03-21T05:21:45.652Z,116.00
2018-03-21T05:23:38.535Z,144.00
2018-03-21T05:24:38.543Z,156.00
2018-03-21T05:26:31.449Z,192.00
2018-03-21T05:27:31.440Z,208.00
2018-03-21T05:29:24.328Z,252.00
2018-03-21T05:30:24.338Z,276.00
2018-03-21T05:32:17.256Z,332.00
2018-03-21T05:33:17.248Z,364.00
2018-03-21T05:35:10.153Z,428.00
2018-03-21T05:36:10.149Z,468.00
2018-03-21T05:38:03.056Z,544.00
2018-03-21T05:39:03.072Z,584.00
2018-03-21T05:40:55.971Z,668.00
2018-03-21T05:41:55.966Z,716.00
2018-03-21T05:43:48.846Z,804.00
2018-03-21T05:44:48.858Z,852.00
2018-03-21T05:46:41.761Z,944.00
2018-03-21T05:47:41.752Z,996.00
2018-03-21T05:49:34.636Z,1080.00
2018-03-21T05:50:34.647Z,1136.00
2018-03-21T05:52:27.561Z,1244.00
2018-03-21T05:53:27.546Z,1288.00
2018-03-21T05:55:20.449Z,1392.00
2018-03-21T05:56:20.439Z,1452.00
2018-03-21T05:58:13.326Z,1572.00
2018-03-21T05:59:13.336Z,1780.00
2018-03-21T06:01:06.241Z,1848.00
2018-03-21T06:02:06.232Z,1644.00
2018-03-21T06:03:59.120Z,1976.00
2018-03-21T06:04:59.130Z,1928.00
2018-03-21T06:06:52.048Z,1472.00
2018-03-21T06:07:52.056Z,1412.00
2018-03-21T06:09:44.989Z,1516.00
2018-03-21T06:10:44.938Z,1560.00
2018-03-21T06:12:37.845Z,1392.00
2018-03-21T06:13:37.836Z,1488.00
2018-03-21T06:15:30.744Z,1816.00
2018-03-21T06:16:30.737Z,2088.00
2018-03-21T06:18:23.625Z,2188.00
2018-03-21T06:19:23.634Z,2344.00
2018-03-21T06:21:16.536Z,2072.00
2018-03-21T06:22:16.529Z,2156.00
2018-03-21T06:24:09.421Z,2584.00
2018-03-21T06:25:09.432Z,2604.00
2018-03-21T06:27:02.357Z,2736.00
2018-03-21T06:28:02.337Z,2940.00
2018-03-21T06:29:55.219Z,3340.00
2018-03-21T06:30:55.232Z,3564.00
2018-03-21T06:32:48.138Z,4092.00
2018-03-21T06:33:48.129Z,4232.00
2018-03-21T06:35:41.045Z,4256.00
2018-03-21T06:36:41.039Z,4436.00
2018-03-21T06:38:33.925Z,4192.00
2018-03-21T06:39:33.934Z,4028.00
2018-03-21T06:41:26.844Z,4376.00
2018-03-21T06:42:26.835Z,4288.00
2018-03-21T06:44:19.722Z,4732.00
2018-03-21T06:45:19.736Z,5068.00
2018-03-21T06:47:12.668Z,4532.00
2018-03-21T06:48:12.664Z,5100.00
2018-03-21T06:50:05.572Z,5668.00
2018-03-21T06:51:05.562Z,5288.00
2018-03-21T06:52:58.473Z,5672.00
2018-03-21T06:53:58.466Z,5868.00
2018-03-21T06:55:51.377Z,6128.00
2018-03-21T06:56:51.367Z,5420.00
2018-03-21T06:58:44.258Z,5952.00
2018-03-21T06:59:44.273Z,5708.00
2018-03-21T07:01:37.182Z,5124.00
2018-03-21T07:02:37.173Z,5124.00
2018-03-21T07:04:30.066Z,4888.00
2018-03-21T07:05:30.077Z,5156.00
2018-03-21T07:07:22.988Z,5396.00
2018-03-21T07:08:22.980Z,6128.00
2018-03-21T07:10:15.869Z,5644.00
2018-03-21T07:11:15.881Z,5240.00
2018-03-21T07:13:08.791Z,5256.00
2018-03-21T07:14:08.787Z,5088.00
2018-03-21T07:16:01.695Z,5472.00
2018-03-21T07:17:01.691Z,5368.00
2018-03-21T07:18:54.578Z,5828.00
2018-03-21T07:19:54.588Z,6352.00
2018-03-21T07:21:47.498Z,5980.00
2018-03-21T07:22:47.491Z,6608.00
2018-03-21T07:24:40.382Z,6904.00
2018-03-21T07:25:40.393Z,6600.00
2018-03-21T07:27:33.305Z,8040.00
2018-03-21T07:28:33.299Z,7576.00
2018-03-21T07:30:26.188Z,7072.00
2018-03-21T07:31:26.203Z,6916.00
2018-03-21T07:33:19.119Z,7460.00
2018-03-21T07:34:19.108Z,8188.00
2018-03-21T07:36:12.020Z,8212.00
2018-03-21T07:37:12.010Z,8436.00
2018-03-21T07:39:04.917Z,7652.00
2018-03-21T07:40:04.921Z,7568.00
2018-03-21T07:41:57.831Z,7292.00
2018-03-21T07:42:57.824Z,7624.00
2018-03-21T07:44:50.716Z,7264.00
2018-03-21T07:45:50.734Z,6932.00
2018-03-21T07:47:43.636Z,8336.00
2018-03-21T07:48:43.630Z,7376.00
2018-03-21T07:50:36.520Z,6240.00
2018-03-21T07:51:36.531Z,6400.00
2018-03-21T07:53:29.440Z,6604.00
2018-03-21T07:54:29.436Z,6124.00
2018-03-21T07:56:22.345Z,6008.00
2018-03-21T07:57:22.344Z,5680.00
2018-03-21T07:59:15.226Z,5368.00
2018-03-21T08:00:15.238Z,5396.00
2018-03-21T08:02:08.146Z,4832.00
2018-03-21T08:03:08.148Z,4584.00
2018-03-21T08:05:01.030Z,4500.00
2018-03-21T08:06:01.042Z,4944.00
2018-03-21T08:07:53.958Z,5568.00
2018-03-21T08:08:53.947Z,5540.00
2018-03-21T08:10:46.837Z,5532.00
2018-03-21T08:11:46.849Z,5268.00
2018-03-21T08:13:39.762Z,5004.00
2018-03-21T08:14:39.755Z,5000.00
2018-03-21T08:16:32.663Z,5396.00
2018-03-21T08:17:32.654Z,5848.00
2018-03-21T08:19:25.562Z,7120.00
2018-03-21T08:20:25.556Z,7296.00
2018-03-21T08:22:18.467Z,5944.00
2018-03-21T08:23:18.460Z,6364.00
2018-03-21T08:25:11.353Z,6712.00
2018-03-21T08:26:11.363Z,6764.00
2018-03-21T08:28:04.272Z,7748.00
2018-03-21T08:29:04.314Z,7292.00
2018-03-21T08:30:57.154Z,8516.00
2018-03-21T08:31:57.175Z,8332.00
2018-03-21T08:33:50.090Z,7612.00
2018-03-21T08:34:50.074Z,7700.00
2018-03-21T08:36:42.981Z,7864.00
2018-03-21T08:37:42.974Z,7660.00
2018-03-21T08:39:35.866Z,7596.00
2018-03-21T08:40:35.880Z,7832.00
2018-03-21T08:42:28.794Z,8032.00
2018-03-21T08:43:28.789Z,7624.00
2018-03-21T08:45:21.675Z,7316.00
2018-03-21T08:46:21.690Z,7576.00
2018-03-21T08:48:14.621Z,7748.00
2018-03-21T08:49:14.595Z,8316.00
2018-03-21T08:51:07.485Z,8876.00
2018-03-21T08:52:07.498Z,9328.00
2018-03-21T08:54:00.409Z,9472.00
2018-03-21T08:55:00.404Z,9056.00
2018-03-21T08:56:53.320Z,9020.00
2018-03-21T08:57:53.315Z,7944.00
2018-03-21T08:59:46.206Z,7476.00
2018-03-21T09:00:46.227Z,7528.00
2018-03-21T09:02:39.138Z,7824.00
2018-03-21T09:03:39.135Z,8216.00
2018-03-21T09:05:32.024Z,8428.00
2018-03-21T09:06:32.041Z,8824.00
2018-03-21T09:08:24.979Z,8008.00
2018-03-21T09:09:24.948Z,8360.00
2018-03-21T09:11:17.843Z,8360.00
2018-03-21T09:12:17.859Z,8044.00
2018-03-21T09:14:10.770Z,8688.00
2018-03-21T09:15:10.765Z,9116.00
2018-03-21T09:17:03.684Z,8072.00
2018-03-21T09:18:03.678Z,7572.00
2018-03-21T09:19:56.573Z,6708.00
2018-03-21T09:20:56.586Z,6856.00
2018-03-21T09:22:49.509Z,6884.00
2018-03-21T09:23:49.506Z,7176.00
2018-03-21T09:25:42.402Z,7556.00
2018-03-21T09:26:42.416Z,8048.00
2018-03-21T09:28:35.333Z,7508.00
2018-03-21T09:29:35.329Z,6652.00
2018-03-21T09:31:28.225Z,6924.00
2018-03-21T09:32:28.240Z,7908.00
2018-03-21T09:34:21.151Z,9056.00
2018-03-21T09:35:21.148Z,8888.00
2018-03-21T09:37:14.070Z,7400.00
2018-03-21T09:38:14.066Z,7912.00
2018-03-21T09:40:06.963Z,9496.00
2018-03-21T09:41:06.975Z,9516.00
2018-03-21T09:42:59.889Z,8664.00
2018-03-21T09:43:59.881Z,7964.00
2018-03-21T09:45:52.780Z,8800.00
2018-03-21T09:46:52.795Z,8236.00
2018-03-21T09:48:45.706Z,7788.00
2018-03-21T09:49:45.750Z,7200.00
2018-03-21T09:51:38.594Z,7308.00
2018-03-21T09:52:38.610Z,9728.00
2018-03-21T09:54:31.525Z,10240.00
2018-03-21T09:55:31.521Z,9360.00
2018-03-21T09:57:24.448Z,7200.00
2018-03-21T09:58:24.443Z,7240.00
2018-03-21T10:00:17.341Z,8924.00
2018-03-21T10:01:17.355Z,9088.00
2018-03-21T10:03:10.269Z,11084.00
2018-03-21T10:04:10.268Z,12732.00
2018-03-21T10:06:03.164Z,10248.00
2018-03-21T10:07:03.179Z,9036.00
2018-03-21T10:08:56.095Z,8964.00
2018-03-21T10:09:56.092Z,8660.00
2018-03-21T10:11:48.991Z,9400.00
2018-03-21T10:12:49.009Z,9764.00
2018-03-21T10:14:41.919Z,9400.00
2018-03-21T10:15:41.915Z,9272.00
2018-03-21T10:17:34.831Z,7344.00
2018-03-21T10:18:34.827Z,6736.00
2018-03-21T10:20:27.722Z,6136.00
2018-03-21T10:21:27.736Z,6712.00
2018-03-21T10:23:20.678Z,6180.00
2018-03-21T10:24:20.645Z,6112.00
2018-03-21T10:26:13.542Z,5756.00
2018-03-21T10:27:13.559Z,5928.00
2018-03-21T10:29:06.475Z,6080.00
2018-03-21T10:30:06.467Z,6008.00
2018-03-21T10:31:59.366Z,5608.00
2018-03-21T10:32:59.383Z,5700.00
2018-03-21T10:34:52.299Z,5652.00
2018-03-21T10:35:52.292Z,5952.00
2018-03-21T10:37:45.208Z,8664.00
2018-03-21T10:38:45.203Z,10712.00
2018-03-21T10:40:38.104Z,10588.00
2018-03-21T10:41:38.117Z,9768.00
2018-03-21T10:43:31.033Z,7888.00
2018-03-21T10:44:31.027Z,7756.00
2018-03-21T10:46:23.926Z,8424.00
2018-03-21T10:47:23.938Z,7684.00
2018-03-21T10:49:16.854Z,8248.00
2018-03-21T10:50:16.852Z,7788.00
2018-03-21T10:52:09.752Z,6604.00
2018-03-21T10:53:09.762Z,7068.00
2018-03-21T10:55:02.676Z,8340.00
2018-03-21T10:56:02.672Z,7276.00
2018-03-21T10:57:55.584Z,5620.00
2018-03-21T10:58:55.582Z,6204.00
2018-03-21T11:00:48.476Z,8544.00
2018-03-21T11:01:48.490Z,8884.00
2018-03-21T11:03:41.407Z,8264.00
2018-03-21T11:04:41.400Z,8744.00
2018-03-21T11:06:34.373Z,8464.00
2018-03-21T11:07:34.381Z,8832.00
2018-03-21T11:09:27.240Z,9472.00
2018-03-21T11:10:27.239Z,10148.00
2018-03-21T11:12:20.139Z,9840.00
2018-03-21T11:13:20.152Z,9988.00
2018-03-21T11:15:13.074Z,10948.00
2018-03-21T11:16:13.064Z,11272.00
2018-03-21T11:18:05.977Z,11648.00
2018-03-21T11:19:13.117Z,12332.00
2018-03-21T11:20:58.878Z,12864.00
2018-03-21T11:21:58.899Z,12220.00
2018-03-21T11:23:51.814Z,10436.00
2018-03-21T11:24:51.809Z,10952.00
2018-03-21T11:26:44.708Z,11228.00
2018-03-21T11:27:44.724Z,11112.00
2018-03-21T11:29:37.641Z,13672.00
2018-03-21T11:30:37.643Z,13812.00
2018-03-21T11:32:30.536Z,11008.00
2018-03-21T11:33:30.558Z,9996.00
2018-03-21T11:35:23.477Z,10500.00
2018-03-21T11:36:23.486Z,11532.00
2018-03-21T11:38:16.399Z,12300.00
2018-03-21T11:39:16.397Z,11408.00
2018-03-21T11:41:09.292Z,10804.00
2018-03-21T11:42:09.319Z,9580.00
2018-03-21T11:44:02.227Z,8068.00
2018-03-21T11:45:02.285Z,8064.00
2018-03-21T11:46:55.129Z,8892.00
2018-03-21T11:47:55.146Z,9324.00
2018-03-21T11:49:48.065Z,10484.00
2018-03-21T11:50:48.065Z,10776.00
2018-03-21T11:52:40.968Z,11924.00
2018-03-21T11:53:40.983Z,12628.00
2018-03-21T11:55:33.903Z,11988.00
2018-03-21T11:56:33.900Z,11972.00
2018-03-21T11:58:26.820Z,12764.00
2018-03-21T11:59:26.817Z,13184.00
2018-03-21T12:01:19.724Z,11756.00
2018-03-21T12:02:19.748Z,11180.00
2018-03-21T12:04:12.673Z,11848.00
2018-03-21T12:05:12.664Z,13392.00
2018-03-21T12:07:05.577Z,12164.00
2018-03-21T12:08:05.602Z,10028.00
2018-03-21T12:09:58.513Z,9128.00
2018-03-21T12:10:58.513Z,9228.00
2018-03-21T12:12:51.416Z,7904.00
2018-03-21T12:13:51.432Z,7204.00
2018-03-21T12:15:44.552Z,6824.00
2018-03-21T12:16:44.557Z,6396.00
2018-03-21T12:18:37.470Z,6836.00
2018-03-21T12:19:37.473Z,7188.00
2018-03-21T12:21:30.372Z,9800.00
2018-03-21T12:22:30.390Z,11752.00
2018-03-21T12:24:23.309Z,10576.00
2018-03-21T12:25:23.309Z,9752.00
2018-03-21T12:27:16.246Z,11284.00
2018-03-21T12:28:16.227Z,11944.00
2018-03-21T12:30:09.152Z,13024.00
2018-03-21T12:31:09.150Z,14780.00
2018-03-21T12:33:02.049Z,14648.00
2018-03-21T12:34:02.082Z,13272.00
2018-03-21T12:35:54.991Z,10828.00
2018-03-21T12:36:54.987Z,9500.00
2018-03-21T12:38:47.910Z,8840.00
2018-03-21T12:39:47.908Z,7940.00
2018-03-21T12:41:40.814Z,6240.00
2018-03-21T12:42:40.842Z,6128.00
2018-03-21T12:44:33.790Z,6660.00
2018-03-21T12:45:33.751Z,7600.00
2018-03-21T12:47:26.650Z,7416.00
2018-03-21T12:48:26.672Z,7320.00
2018-03-21T12:50:19.591Z,8628.00
2018-03-21T12:51:19.591Z,8636.00
2018-03-21T12:53:12.493Z,8920.00
2018-03-21T12:54:12.518Z,8324.00
2018-03-21T12:56:05.514Z,7564.00
2018-03-21T12:57:05.430Z,7440.00
2018-03-21T12:58:58.351Z,7104.00
2018-03-21T12:59:58.351Z,6456.00
2018-03-21T13:01:51.248Z,6092.00
2018-03-21T13:02:51.268Z,6024.00
2018-03-21T13:04:44.186Z,7076.00
2018-03-21T13:05:44.186Z,7072.00
2018-03-21T13:07:37.105Z,6884.00
2018-03-21T13:08:37.104Z,7120.00
2018-03-21T13:10:30.028Z,7860.00
2018-03-21T13:11:30.029Z,7708.00
2018-03-21T13:13:22.924Z,7904.00
2018-03-21T13:14:22.943Z,8172.00
2018-03-21T13:16:16.048Z,8592.00
2018-03-21T13:17:16.035Z,9032.00
2018-03-21T13:19:08.955Z,9372.00
2018-03-21T13:20:08.961Z,9196.00
2018-03-21T13:22:01.865Z,9004.00
2018-03-21T13:23:01.876Z,9148.00
2018-03-21T13:24:54.797Z,9164.00
2018-03-21T13:25:54.799Z,9268.00
2018-03-21T13:27:47.703Z,9168.00
2018-03-21T13:28:47.723Z,8424.00
2018-03-21T13:30:40.643Z,8476.00
2018-03-21T13:31:40.636Z,8576.00
2018-03-21T13:33:33.543Z,8260.00
2018-03-21T13:34:33.562Z,8056.00
2018-03-21T13:36:26.484Z,6904.00
2018-03-21T13:37:26.480Z,6520.00
2018-03-21T13:39:19.409Z,7076.00
2018-03-21T13:40:19.402Z,8228.00
2018-03-21T13:42:12.304Z,8904.00
2018-03-21T13:43:12.320Z,8168.00
2018-03-21T13:45:05.246Z,6760.00
2018-03-21T13:46:05.242Z,6132.00
2018-03-21T13:47:58.137Z,5256.00
2018-03-21T13:48:58.155Z,5092.00
2018-03-21T13:50:51.089Z,4420.00
2018-03-21T13:51:51.153Z,4100.00
2018-03-21T13:53:43.979Z,4024.00
2018-03-21T13:54:43.993Z,3836.00
2018-03-21T13:56:36.911Z,4208.00
2018-03-21T13:57:36.903Z,4140.00
2018-03-21T13:59:29.830Z,5148.00
2018-03-21T14:00:29.828Z,6376.00
2018-03-21T14:02:22.727Z,8268.00
2018-03-21T14:03:22.757Z,8872.00
2018-03-21T14:05:15.662Z,9092.00
2018-03-21T14:06:15.658Z,8276.00
2018-03-21T14:08:08.559Z,6932.00
2018-03-21T14:09:08.576Z,7084.00
2018-03-21T14:11:01.530Z,7528.00
2018-03-21T14:12:01.497Z,7948.00
2018-03-21T14:13:54.401Z,8196.00
2018-03-21T14:14:54.417Z,8188.00
2018-03-21T14:16:47.342Z,8800.00
2018-03-21T14:17:47.343Z,8688.00
2018-03-21T14:19:40.768Z,7932.00
2018-03-21T14:20:40.772Z,7652.00
2018-03-21T14:22:33.715Z,7896.00
2018-03-21T14:23:33.690Z,8636.00
2018-03-21T14:25:26.916Z,9208.00
2018-03-21T14:26:26.900Z,9260.00
2018-03-21T14:28:19.786Z,9192.00
2018-03-21T14:29:19.756Z,8868.00
2018-03-21T14:31:12.675Z,8824.00
2018-03-21T14:32:12.671Z,8584.00
2018-03-21T14:34:05.581Z,7448.00
2018-03-21T14:35:05.600Z,6976.00
2018-03-21T14:36:58.529Z,5968.00
2018-03-21T14:37:58.565Z,5724.00
2018-03-21T14:39:51.443Z,5840.00
2018-03-21T14:40:51.436Z,5900.00
2018-03-21T14:42:44.346Z,5640.00
2018-03-21T14:43:44.357Z,5264.00
2018-03-21T14:45:37.275Z,4612.00
2018-03-21T14:46:37.273Z,4264.00
2018-03-21T14:48:30.174Z,3776.00
2018-03-21T14:49:30.253Z,3672.00
2018-03-21T14:51:23.332Z,3708.00
2018-03-21T14:52:23.271Z,3632.00
2018-03-21T14:54:16.172Z,3484.00
2018-03-21T14:55:16.189Z,3464.00
2018-03-21T14:57:09.106Z,3444.00
2018-03-21T14:58:09.135Z,3400.00
2018-03-21T15:00:02.022Z,3288.00
2018-03-21T15:01:02.062Z,3264.00
2018-03-21T15:02:54.921Z,3288.00
2018-03-21T15:03:54.958Z,3316.00
2018-03-21T15:05:48.014Z,3320.00
2018-03-21T15:06:48.016Z,3332.00
2018-03-21T15:08:40.928Z,3256.00
2018-03-21T15:09:40.947Z,3272.00
2018-03-21T15:11:33.861Z,3308.00
2018-03-21T15:12:33.858Z,3324.00
2018-03-21T15:14:26.756Z,3380.00
2018-03-21T15:15:26.773Z,3400.00
2018-03-21T15:17:20.185Z,3376.00
2018-03-21T15:18:20.181Z,3368.00
2018-03-21T15:20:13.099Z,3588.00
2018-03-21T15:21:13.096Z,3776.00
2018-03-21T15:23:05.999Z,4104.00
2018-03-21T15:24:06.014Z,4244.00
2018-03-21T15:25:58.934Z,4404.00
2018-03-21T15:26:58.928Z,4464.00
2018-03-21T15:28:51.825Z,4584.00
2018-03-21T15:29:51.843Z,4672.00
2018-03-21T15:31:44.759Z,4732.00
2018-03-21T15:32:44.760Z,4800.00
2018-03-21T15:34:37.656Z,4904.00
2018-03-21T15:35:37.670Z,4880.00
2018-03-21T15:37:30.588Z,5012.00
2018-03-21T15:38:30.583Z,5124.00
2018-03-21T15:40:23.544Z,5184.00
2018-03-21T15:41:23.499Z,5028.00
2018-03-21T15:43:16.424Z,4576.00
2018-03-21T15:44:16.416Z,4436.00
2018-03-21T15:46:09.334Z,4400.00
2018-03-21T15:47:09.332Z,4436.00
2018-03-21T15:49:02.267Z,4400.00
2018-03-21T15:50:02.250Z,4444.00
2018-03-21T15:51:55.173Z,4408.00
2018-03-21T15:52:55.199Z,4340.00
2018-03-21T15:54:48.074Z,4272.00
2018-03-21T15:55:48.087Z,4220.00
2018-03-21T15:57:41.058Z,4152.00
2018-03-21T15:58:41.013Z,4152.00
2018-03-21T16:00:33.941Z,4168.00
2018-03-21T16:01:33.923Z,4164.00
2018-03-21T16:03:26.848Z,4048.00
2018-03-21T16:04:26.840Z,3960.00
2018-03-21T16:06:19.783Z,3800.00
2018-03-21T16:07:19.780Z,3644.00
2018-03-21T16:09:12.699Z,3320.00
2018-03-21T16:10:12.704Z,3224.00
2018-03-21T16:12:05.614Z,3428.00
2018-03-21T16:13:05.614Z,3576.00
2018-03-21T16:14:58.514Z,3556.00
2018-03-21T16:15:58.527Z,3504.00
2018-03-21T16:17:52.156Z,3376.00
2018-03-21T16:18:52.154Z,3292.00
2018-03-21T16:20:45.081Z,3116.00
2018-03-21T16:21:45.066Z,3016.00
2018-03-21T16:23:37.968Z,2648.00
2018-03-21T16:24:37.983Z,2552.00
2018-03-21T16:26:30.907Z,2136.00
2018-03-21T16:27:30.912Z,1908.00
2018-03-21T16:29:23.804Z,1972.00
2018-03-21T16:30:23.822Z,2060.00
2018-03-21T16:32:16.743Z,2168.00
2018-03-21T16:33:16.743Z,2100.00
2018-03-21T16:35:09.641Z,2100.00
2018-03-21T16:36:09.656Z,2140.00
2018-03-21T16:38:02.581Z,2024.00
2018-03-21T16:39:02.581Z,1832.00
2018-03-21T16:40:55.512Z,1528.00
2018-03-21T16:41:55.494Z,1448.00
2018-03-21T16:43:48.401Z,1332.00
2018-03-21T16:44:48.414Z,1252.00
2018-03-21T16:46:41.335Z,1192.00
2018-03-21T16:47:41.331Z,1172.00
2018-03-21T16:49:34.233Z,1088.00
2018-03-21T16:50:34.247Z,1060.00
2018-03-21T16:52:27.168Z,1076.00
2018-03-21T16:53:27.166Z,1108.00
2018-03-21T16:55:20.066Z,1160.00
2018-03-21T16:56:20.083Z,1176.00
2018-03-21T16:58:13.994Z,1176.00
2018-03-21T16:59:13.995Z,1156.00
2018-03-21T17:01:06.908Z,1104.00
2018-03-21T17:02:06.905Z,1084.00
2018-03-21T17:03:59.829Z,1036.00
2018-03-21T17:04:59.826Z,1020.00
2018-03-21T17:06:52.740Z,1036.00
2018-03-21T17:07:52.739Z,1060.00
2018-03-21T17:09:45.637Z,1112.00
2018-03-21T17:10:45.650Z,1116.00
2018-03-21T17:12:38.579Z,1132.00
2018-03-21T17:13:38.575Z,1180.00
2018-03-21T17:15:31.510Z,1160.00
2018-03-21T17:16:31.520Z,1092.00
2018-03-21T17:18:24.438Z,964.00
2018-03-21T17:19:24.437Z,896.00
2018-03-21T17:21:17.363Z,760.00
2018-03-21T17:22:17.349Z,688.00
2018-03-21T17:24:10.243Z,572.00
2018-03-21T17:25:10.268Z,540.00
2018-03-21T17:27:03.175Z,464.00
2018-03-21T17:28:03.183Z,436.00
2018-03-21T17:29:56.563Z,392.00
2018-03-21T17:30:56.580Z,372.00
2018-03-21T17:32:49.508Z,316.00
2018-03-21T17:33:49.498Z,280.00
2018-03-21T17:35:42.399Z,228.00
2018-03-21T17:36:42.416Z,200.00
2018-03-21T17:38:35.331Z,152.00
2018-03-21T17:39:35.333Z,128.00
2018-03-21T17:41:28.462Z,88.00
2018-03-21T17:42:28.440Z,76.00
2018-03-21T17:44:21.337Z,56.00
2018-03-21T17:45:21.354Z,48.00
2018-03-21T17:47:14.266Z,36.00
2018-03-21T17:48:14.264Z,32.00
2018-03-21T17:50:07.262Z,20.00
2018-03-21T17:51:07.284Z,20.00
2018-03-21T17:53:00.196Z,12.00
2018-03-21T17:54:00.196Z,12.00
2018-03-21T17:55:53.089Z,8.00